»·PEaware :: N313WC KSAN-L35

N313WC :: KSAN-L35

FLIGHT INFORMATION

Flight Status: Arrived
Operator: Privately registered:
United States
More flights under this callsign
Pilot: Sonny B. (6473)
Aircraft: PIPER PA-30 TWIN COMANCHE
(PA30)
More flights by this aircraft type
Origin: KSAN San Diego Intl-Lindbergh
United States
Destination: L35 Big Bear City
United States
More flights between these airports :: More routes between these airports
Route: BONDO HDF PDZ V442 APLES SOGGI BRGET
File this flight plan on PilotEdge
Remarks:
Altitude:
(Current/Filed)
12,000ft
Speed:
(Current/Filed)
150kts
Departed: 28-Nov-17 07:12 PM
Arrived: 28-Nov-17 08:33 PM
Distance/Time
Traveled:
93nm/1:21
Distance/Time
To Go:
Arrived

Flight Plot

Page will automatically refresh every two minutes.

Flight plan parsing failed; only flown route is shown


Map Options




Map Legend


Flown Route
Filed Route
Departure Airport
Arrival Airport
Navaid (VOR, NDB)
Fix

Horizontal Profiles

Position Reports

Time Latitude Longitude Heading Altitude Ground
Speed
28-Nov-17 18:59 32.732418 -117.176642 194 21ft 0kts
28-Nov-17 19:00 32.732418 -117.176642 194 21ft 0kts
28-Nov-17 19:01 32.732418 -117.176642 194 21ft 0kts
28-Nov-17 19:02 32.732418 -117.176642 194 21ft 0kts
28-Nov-17 19:03 32.732418 -117.176642 194 21ft 0kts
28-Nov-17 19:04 32.732418 -117.176642 194 21ft 0kts
28-Nov-17 19:05 32.732418 -117.176642 194 21ft 0kts
28-Nov-17 19:06 32.732418 -117.176642 194 21ft 0kts
28-Nov-17 19:07 32.732418 -117.176642 194 21ft 0kts
28-Nov-17 19:08 32.732418 -117.176642 194 21ft 0kts
28-Nov-17 19:09 32.732418 -117.176642 194 21ft 0kts
28-Nov-17 19:10 32.732418 -117.176642 194 21ft 0kts
28-Nov-17 19:11 32.732418 -117.176642 194 21ft 0kts
28-Nov-17 19:12 32.732418 -117.176642 194 21ft 0kts
28-Nov-17 19:13 32.732418 -117.176642 194 21ft 0kts
28-Nov-17 19:14 32.731156 -117.175834 120 20ft 19kts
28-Nov-17 19:15 32.731017 -117.175589 129 20ft 0kts
28-Nov-17 19:16 32.731014 -117.175586 129 20ft 1kts
28-Nov-17 19:17 32.730746 -117.178076 287 18ft 62kts
28-Nov-17 19:18 32.737339 -117.199874 301 955ft 104kts
28-Nov-17 19:19 32.758767 -117.220725 324 2241ft 112kts
28-Nov-17 19:20 32.782504 -117.242122 320 3327ft 108kts
28-Nov-17 19:21 32.809785 -117.256358 23 3995ft 122kts
28-Nov-17 19:22 32.836576 -117.239070 27 4765ft 123kts
28-Nov-17 19:23 32.864914 -117.220518 25 5402ft 124kts
28-Nov-17 19:24 32.894318 -117.203700 27 6027ft 125kts
28-Nov-17 19:25 32.924509 -117.186529 26 6607ft 126kts
28-Nov-17 19:26 32.955021 -117.167876 26 7235ft 127kts
28-Nov-17 19:27 32.986568 -117.150639 21 7858ft 128kts
28-Nov-17 19:28 33.017447 -117.131446 27 8478ft 130kts
28-Nov-17 19:29 33.048581 -117.113335 24 9030ft 133kts
28-Nov-17 19:30 33.080756 -117.094178 26 9416ft 136kts
28-Nov-17 19:31 33.112126 -117.075170 27 9944ft 123kts
28-Nov-17 19:32 33.142045 -117.057500 28 10312ft 126kts
28-Nov-17 19:33 33.172029 -117.038871 29 10636ft 121kts
28-Nov-17 19:34 33.200230 -117.028487 352 10847ft 120kts
28-Nov-17 19:35 33.219574 -117.032572 348 10898ft 124kts
28-Nov-17 19:36 33.247519 -117.041052 346 11294ft 120kts
28-Nov-17 19:37 33.279878 -117.048829 350 11893ft 128kts
28-Nov-17 19:38 33.315635 -117.059391 345 11999ft 146kts
28-Nov-17 19:39 33.354067 -117.070694 346 11993ft 150kts
28-Nov-17 19:40 33.394220 -117.082285 346 11992ft 152kts
28-Nov-17 19:41 33.433237 -117.093496 346 11991ft 152kts
28-Nov-17 19:42 33.472637 -117.104832 346 11991ft 152kts
28-Nov-17 19:43 33.511970 -117.115307 347 11991ft 152kts
28-Nov-17 19:44 33.551710 -117.125872 347 11991ft 152kts
28-Nov-17 19:45 33.591528 -117.136450 347 11991ft 152kts
28-Nov-17 19:46 33.629323 -117.146478 347 11991ft 152kts
28-Nov-17 19:47 33.669370 -117.157089 347 11992ft 153kts
28-Nov-17 19:48 33.710166 -117.167930 347 11993ft 158kts
28-Nov-17 19:49 33.752084 -117.179013 347 11992ft 163kts
28-Nov-17 19:50 33.782318 -117.208038 298 11993ft 164kts
28-Nov-17 19:51 33.802100 -117.253418 298 11991ft 164kts
28-Nov-17 19:52 33.822372 -117.298308 299 11991ft 164kts
28-Nov-17 19:53 33.842729 -117.344456 297 11991ft 164kts
28-Nov-17 19:54 33.856076 -117.376447 297 11990ft 162kts
28-Nov-17 19:55 33.866643 -117.401756 297 11990ft 160kts
28-Nov-17 19:56 33.889030 -117.455382 297 11991ft 159kts
28-Nov-17 19:57 33.904988 -117.493547 297 11991ft 159kts
28-Nov-17 19:58 33.935563 -117.514805 20 11994ft 155kts
28-Nov-17 19:59 33.974617 -117.495793 22 11991ft 155kts
28-Nov-17 20:00 34.018602 -117.469568 26 11991ft 155kts
28-Nov-17 20:01 34.049597 -117.450825 26 11991ft 155kts
28-Nov-17 20:02 34.078618 -117.433274 26 11991ft 155kts
28-Nov-17 20:03 34.121955 -117.407041 26 11991ft 155kts
28-Nov-17 20:04 34.153217 -117.388110 26 11991ft 155kts
28-Nov-17 20:05 34.190634 -117.365440 26 11991ft 155kts
28-Nov-17 20:06 34.227048 -117.343409 25 11991ft 155kts
28-Nov-17 20:07 34.263909 -117.322039 25 11991ft 155kts
28-Nov-17 20:08 34.301257 -117.300361 25 11991ft 155kts
28-Nov-17 20:09 34.339447 -117.277623 26 11991ft 155kts
28-Nov-17 20:10 34.377299 -117.254629 26 11991ft 155kts
28-Nov-17 20:11 34.415402 -117.231471 26 11991ft 155kts
28-Nov-17 20:12 34.453690 -117.207463 27 11991ft 155kts
28-Nov-17 20:13 34.491989 -117.183130 27 11991ft 155kts
28-Nov-17 20:14 34.530511 -117.159563 26 11991ft 155kts
28-Nov-17 20:15 34.543589 -117.116140 92 11993ft 156kts
28-Nov-17 20:16 34.540234 -117.063561 95 11991ft 156kts
28-Nov-17 20:17 34.535762 -117.012579 96 11971ft 137kts
28-Nov-17 20:18 34.531882 -116.966085 95 11907ft 131kts
28-Nov-17 20:19 34.527062 -116.923345 96 11436ft 130kts
28-Nov-17 20:20 34.522489 -116.879624 98 10864ft 131kts
28-Nov-17 20:21 34.518127 -116.835659 97 10297ft 130kts
28-Nov-17 20:22 34.513239 -116.792394 94 9754ft 129kts
28-Nov-17 20:23 34.509565 -116.748302 95 9442ft 135kts
28-Nov-17 20:24 34.505389 -116.699881 96 9444ft 150kts
28-Nov-17 20:25 34.476898 -116.669732 159 9442ft 152kts
28-Nov-17 20:26 34.437605 -116.652495 160 9440ft 153kts
28-Nov-17 20:27 34.398541 -116.636251 160 9440ft 153kts
28-Nov-17 20:28 34.360112 -116.636425 189 9441ft 153kts
28-Nov-17 20:29 34.323555 -116.644878 190 9440ft 153kts
28-Nov-17 20:30 34.286213 -116.653682 190 9440ft 153kts
28-Nov-17 20:31 34.266035 -116.683030 264 9435ft 145kts
28-Nov-17 20:32 34.264434 -116.720634 270 8740ft 134kts
28-Nov-17 20:33 34.264316 -116.755255 268 8328ft 120kts
28-Nov-17 20:34 34.264331 -116.787222 271 7592ft 123kts
28-Nov-17 20:35 34.264148 -116.808650 268 7320ft 113kts
28-Nov-17 20:36 34.263782 -116.827207 271 7147ft 104kts
28-Nov-17 20:37 34.263818 -116.846130 270 6812ft 92kts
28-Nov-17 20:38 34.263793 -116.857937 268 6751ft 30kts

Navigation Log

Ident Type
Flight plan parsing failed, navigation log unavailable